sensor_id;sensor_type;location;lat;lon;timestamp;temperature;humidity
15705;DHT22;7952;48.396;12.806;2024-02-14T00:01:34;6.50;56.20
15705;DHT22;7952;48.396;12.806;2024-02-14T00:04:03;6.50;55.60
15705;DHT22;7952;48.396;12.806;2024-02-14T00:06:28;6.50;55.70
15705;DHT22;7952;48.396;12.806;2024-02-14T00:08:54;6.40;55.70
15705;DHT22;7952;48.396;12.806;2024-02-14T00:11:20;6.40;55.80
15705;DHT22;7952;48.396;12.806;2024-02-14T00:13:45;6.40;55.80
15705;DHT22;7952;48.396;12.806;2024-02-14T00:16:11;6.30;55.70
15705;DHT22;7952;48.396;12.806;2024-02-14T00:18:36;6.30;55.80
15705;DHT22;7952;48.396;12.806;2024-02-14T00:21:02;6.30;55.80
15705;DHT22;7952;48.396;12.806;2024-02-14T00:23:27;6.20;55.80
15705;DHT22;7952;48.396;12.806;2024-02-14T00:25:53;6.20;55.80
15705;DHT22;7952;48.396;12.806;2024-02-14T00:28:19;6.20;55.80
15705;DHT22;7952;48.396;12.806;2024-02-14T00:30:44;6.20;55.80
15705;DHT22;7952;48.396;12.806;2024-02-14T00:33:10;6.20;55.80
15705;DHT22;7952;48.396;12.806;2024-02-14T00:35:35;6.20;55.80
15705;DHT22;7952;48.396;12.806;2024-02-14T00:38:01;6.20;56.40
15705;DHT22;7952;48.396;12.806;2024-02-14T00:40:27;6.20;55.80
15705;DHT22;7952;48.396;12.806;2024-02-14T00:42:52;6.20;55.80
15705;DHT22;7952;48.396;12.806;2024-02-14T00:45:18;6.20;55.80
15705;DHT22;7952;48.396;12.806;2024-02-14T00:47:44;6.20;55.90
15705;DHT22;7952;48.396;12.806;2024-02-14T00:50:09;6.20;55.80
15705;DHT22;7952;48.396;12.806;2024-02-14T00:52:35;6.20;55.80
15705;DHT22;7952;48.396;12.806;2024-02-14T00:55:01;6.10;55.80
15705;DHT22;7952;48.396;12.806;2024-02-14T00:57:29;6.10;55.90
15705;DHT22;7952;48.396;12.806;2024-02-14T00:59:54;6.10;55.80
15705;DHT22;7952;48.396;12.806;2024-02-14T01:02:22;6.20;55.80
15705;DHT22;7952;48.396;12.806;2024-02-14T01:04:47;6.10;55.80
15705;DHT22;7952;48.396;12.806;2024-02-14T01:07:13;6.20;55.80
15705;DHT22;7952;48.396;12.806;2024-02-14T01:09:38;6.20;55.80
15705;DHT22;7952;48.396;12.806;2024-02-14T01:12:04;6.20;55.80
15705;DHT22;7952;48.396;12.806;2024-02-14T01:14:31;6.10;55.70
15705;DHT22;7952;48.396;12.806;2024-02-14T01:16:56;6.10;55.70
15705;DHT22;7952;48.396;12.806;2024-02-14T01:19:22;6.10;55.70
15705;DHT22;7952;48.396;12.806;2024-02-14T01:21:49;6.10;55.70
15705;DHT22;7952;48.396;12.806;2024-02-14T01:24:15;6.10;55.70
15705;DHT22;7952;48.396;12.806;2024-02-14T01:26:41;6.10;55.70
15705;DHT22;7952;48.396;12.806;2024-02-14T01:29:07;6.10;55.70
15705;DHT22;7952;48.396;12.806;2024-02-14T01:31:35;6.10;55.70
15705;DHT22;7952;48.396;12.806;2024-02-14T01:34:01;6.10;55.70
15705;DHT22;7952;48.396;12.806;2024-02-14T01:36:29;6.10;55.70
15705;DHT22;7952;48.396;12.806;2024-02-14T01:38:55;6.10;55.70
15705;DHT22;7952;48.396;12.806;2024-02-14T01:41:21;6.00;55.60
15705;DHT22;7952;48.396;12.806;2024-02-14T01:43:47;6.00;55.70
15705;DHT22;7952;48.396;12.806;2024-02-14T01:46:13;6.00;55.70
15705;DHT22;7952;48.396;12.806;2024-02-14T01:48:39;6.00;55.70
15705;DHT22;7952;48.396;12.806;2024-02-14T01:51:06;6.00;55.70
15705;DHT22;7952;48.396;12.806;2024-02-14T01:53:34;6.00;55.80
15705;DHT22;7952;48.396;12.806;2024-02-14T01:56:01;6.00;55.80
15705;DHT22;7952;48.396;12.806;2024-02-14T01:58:29;6.00;55.80
15705;DHT22;7952;48.396;12.806;2024-02-14T02:00:55;6.00;55.80
15705;DHT22;7952;48.396;12.806;2024-02-14T02:03:25;6.00;55.80
15705;DHT22;7952;48.396;12.806;2024-02-14T02:05:55;6.00;55.90
15705;DHT22;7952;48.396;12.806;2024-02-14T02:08:21;6.00;55.80
15705;DHT22;7952;48.396;12.806;2024-02-14T02:10:47;6.00;55.80
15705;DHT22;7952;48.396;12.806;2024-02-14T02:13:13;6.00;55.90
15705;DHT22;7952;48.396;12.806;2024-02-14T02:15:40;6.00;55.90
15705;DHT22;7952;48.396;12.806;2024-02-14T02:18:10;6.00;55.80
15705;DHT22;7952;48.396;12.806;2024-02-14T02:20:35;6.00;55.80
15705;DHT22;7952;48.396;12.806;2024-02-14T02:23:01;6.00;55.80
15705;DHT22;7952;48.396;12.806;2024-02-14T02:25:27;6.10;55.90
15705;DHT22;7952;48.396;12.806;2024-02-14T02:27:53;6.10;55.90
15705;DHT22;7952;48.396;12.806;2024-02-14T02:30:22;6.10;55.80
15705;DHT22;7952;48.396;12.806;2024-02-14T02:32:47;6.20;55.80
15705;DHT22;7952;48.396;12.806;2024-02-14T02:35:13;6.20;55.80
15705;DHT22;7952;48.396;12.806;2024-02-14T02:37:39;6.30;55.80
15705;DHT22;7952;48.396;12.806;2024-02-14T02:40:05;6.30;55.70
15705;DHT22;7952;48.396;12.806;2024-02-14T02:42:30;6.30;55.70
15705;DHT22;7952;48.396;12.806;2024-02-14T02:44:56;6.30;55.60
15705;DHT22;7952;48.396;12.806;2024-02-14T02:47:21;6.40;55.60
15705;DHT22;7952;48.396;12.806;2024-02-14T02:49:47;6.40;55.60
15705;DHT22;7952;48.396;12.806;2024-02-14T02:52:13;6.40;55.60
15705;DHT22;7952;48.396;12.806;2024-02-14T02:54:39;6.50;55.60
15705;DHT22;7952;48.396;12.806;2024-02-14T02:57:10;6.50;55.60
15705;DHT22;7952;48.396;12.806;2024-02-14T02:59:36;6.50;55.60
15705;DHT22;7952;48.396;12.806;2024-02-14T03:02:02;6.50;55.50
15705;DHT22;7952;48.396;12.806;2024-02-14T03:04:29;6.50;55.50
15705;DHT22;7952;48.396;12.806;2024-02-14T03:06:57;6.60;55.60
15705;DHT22;7952;48.396;12.806;2024-02-14T03:09:22;6.60;55.60
15705;DHT22;7952;48.396;12.806;2024-02-14T03:11:48;6.60;55.50
15705;DHT22;7952;48.396;12.806;2024-02-14T03:14:14;6.60;55.50
15705;DHT22;7952;48.396;12.806;2024-02-14T03:16:40;6.70;55.50
15705;DHT22;7952;48.396;12.806;2024-02-14T03:19:06;6.70;55.50
15705;DHT22;7952;48.396;12.806;2024-02-14T03:21:32;6.70;55.40
15705;DHT22;7952;48.396;12.806;2024-02-14T03:24:02;6.70;55.40
15705;DHT22;7952;48.396;12.806;2024-02-14T03:26:33;6.80;55.50
15705;DHT22;7952;48.396;12.806;2024-02-14T03:29:00;6.80;55.40
15705;DHT22;7952;48.396;12.806;2024-02-14T03:31:25;6.80;55.40
15705;DHT22;7952;48.396;12.806;2024-02-14T03:33:52;6.80;55.40
15705;DHT22;7952;48.396;12.806;2024-02-14T03:36:19;6.80;55.40
15705;DHT22;7952;48.396;12.806;2024-02-14T03:38:45;6.80;55.40
15705;DHT22;7952;48.396;12.806;2024-02-14T03:41:12;6.80;55.40
15705;DHT22;7952;48.396;12.806;2024-02-14T03:43:40;6.80;55.40
15705;DHT22;7952;48.396;12.806;2024-02-14T03:46:06;6.80;55.30
15705;DHT22;7952;48.396;12.806;2024-02-14T03:48:32;6.80;55.30
15705;DHT22;7952;48.396;12.806;2024-02-14T03:50:57;6.90;55.50
15705;DHT22;7952;48.396;12.806;2024-02-14T03:53:23;6.80;55.30
15705;DHT22;7952;48.396;12.806;2024-02-14T03:55:49;6.90;55.50
15705;DHT22;7952;48.396;12.806;2024-02-14T03:58:15;6.90;55.40
15705;DHT22;7952;48.396;12.806;2024-02-14T04:00:43;6.80;55.30
15705;DHT22;7952;48.396;12.806;2024-02-14T04:03:12;6.80;55.30
15705;DHT22;7952;48.396;12.806;2024-02-14T04:05:38;6.90;55.40
15705;DHT22;7952;48.396;12.806;2024-02-14T04:08:05;6.90;55.40
15705;DHT22;7952;48.396;12.806;2024-02-14T04:10:35;6.80;55.30
15705;DHT22;7952;48.396;12.806;2024-02-14T04:13:03;6.80;55.30
15705;DHT22;7952;48.396;12.806;2024-02-14T04:15:29;6.80;55.30
15705;DHT22;7952;48.396;12.806;2024-02-14T04:17:55;6.70;55.20
15705;DHT22;7952;48.396;12.806;2024-02-14T04:20:21;6.70;55.30
15705;DHT22;7952;48.396;12.806;2024-02-14T04:22:46;6.70;55.30
15705;DHT22;7952;48.396;12.806;2024-02-14T04:25:12;6.60;55.30
15705;DHT22;7952;48.396;12.806;2024-02-14T04:27:37;6.60;55.30
15705;DHT22;7952;48.396;12.806;2024-02-14T04:30:04;6.50;55.30
15705;DHT22;7952;48.396;12.806;2024-02-14T04:32:29;6.50;55.40
15705;DHT22;7952;48.396;12.806;2024-02-14T04:34:55;6.40;55.40
15705;DHT22;7952;48.396;12.806;2024-02-14T04:37:21;6.40;55.40
15705;DHT22;7952;48.396;12.806;2024-02-14T04:39:47;6.40;55.50
15705;DHT22;7952;48.396;12.806;2024-02-14T04:42:13;6.40;55.60
15705;DHT22;7952;48.396;12.806;2024-02-14T04:44:38;6.20;55.40
15705;DHT22;7952;48.396;12.806;2024-02-14T04:47:04;6.20;55.50
15705;DHT22;7952;48.396;12.806;2024-02-14T04:49:30;6.20;55.60
15705;DHT22;7952;48.396;12.806;2024-02-14T04:51:57;6.20;55.60
15705;DHT22;7952;48.396;12.806;2024-02-14T04:54:23;6.10;55.50
15705;DHT22;7952;48.396;12.806;2024-02-14T04:56:48;6.10;55.50
15705;DHT22;7952;48.396;12.806;2024-02-14T04:59:14;6.00;55.50
15705;DHT22;7952;48.396;12.806;2024-02-14T05:01:40;6.00;55.50
15705;DHT22;7952;48.396;12.806;2024-02-14T05:04:06;5.90;55.60
15705;DHT22;7952;48.396;12.806;2024-02-14T05:06:32;5.90;55.60
15705;DHT22;7952;48.396;12.806;2024-02-14T05:08:58;5.90;55.70
15705;DHT22;7952;48.396;12.806;2024-02-14T05:11:23;5.80;55.60
15705;DHT22;7952;48.396;12.806;2024-02-14T05:13:49;5.80;55.70
15705;DHT22;7952;48.396;12.806;2024-02-14T05:16:19;5.70;55.60
15705;DHT22;7952;48.396;12.806;2024-02-14T05:18:45;5.70;55.80
15705;DHT22;7952;48.396;12.806;2024-02-14T05:21:10;5.60;55.70
15705;DHT22;7952;48.396;12.806;2024-02-14T05:23:36;5.60;55.80
15705;DHT22;7952;48.396;12.806;2024-02-14T05:26:05;5.60;55.80
15705;DHT22;7952;48.396;12.806;2024-02-14T05:28:31;5.60;55.80
15705;DHT22;7952;48.396;12.806;2024-02-14T05:30:57;5.60;55.80
15705;DHT22;7952;48.396;12.806;2024-02-14T05:33:23;5.60;55.90
15705;DHT22;7952;48.396;12.806;2024-02-14T05:35:49;5.50;55.80
15705;DHT22;7952;48.396;12.806;2024-02-14T05:38:15;5.50;55.70
15705;DHT22;7952;48.396;12.806;2024-02-14T05:40:42;5.50;55.70
15705;DHT22;7952;48.396;12.806;2024-02-14T05:43:10;5.50;55.70
15705;DHT22;7952;48.396;12.806;2024-02-14T05:45:35;5.40;55.70
15705;DHT22;7952;48.396;12.806;2024-02-14T05:48:01;5.50;55.80
15705;DHT22;7952;48.396;12.806;2024-02-14T05:50:27;5.40;55.80
15705;DHT22;7952;48.396;12.806;2024-02-14T05:52:53;5.40;55.80
15705;DHT22;7952;48.396;12.806;2024-02-14T05:55:18;5.40;55.80
15705;DHT22;7952;48.396;12.806;2024-02-14T05:57:44;5.40;55.90
15705;DHT22;7952;48.396;12.806;2024-02-14T06:00:10;5.40;55.90
15705;DHT22;7952;48.396;12.806;2024-02-14T06:02:36;5.30;55.80
15705;DHT22;7952;48.396;12.806;2024-02-14T06:05:02;5.30;55.80
15705;DHT22;7952;48.396;12.806;2024-02-14T06:07:28;5.30;55.80
15705;DHT22;7952;48.396;12.806;2024-02-14T06:09:53;5.30;55.90
15705;DHT22;7952;48.396;12.806;2024-02-14T06:12:19;5.30;55.90
15705;DHT22;7952;48.396;12.806;2024-02-14T06:14:49;5.30;55.80
15705;DHT22;7952;48.396;12.806;2024-02-14T06:17:15;5.40;55.90
15705;DHT22;7952;48.396;12.806;2024-02-14T06:19:40;5.40;55.90
15705;DHT22;7952;48.396;12.806;2024-02-14T06:22:06;5.40;55.90
15705;DHT22;7952;48.396;12.806;2024-02-14T06:24:32;5.40;55.90
15705;DHT22;7952;48.396;12.806;2024-02-14T06:26:57;5.40;55.90
15705;DHT22;7952;48.396;12.806;2024-02-14T06:29:23;5.40;55.90
15705;DHT22;7952;48.396;12.806;2024-02-14T06:31:48;5.50;56.00
15705;DHT22;7952;48.396;12.806;2024-02-14T06:34:15;5.60;56.10
15705;DHT22;7952;48.396;12.806;2024-02-14T06:36:40;5.60;56.00
15705;DHT22;7952;48.396;12.806;2024-02-14T06:39:07;5.70;56.00
15705;DHT22;7952;48.396;12.806;2024-02-14T06:41:33;5.80;56.00
15705;DHT22;7952;48.396;12.806;2024-02-14T06:43:58;5.80;55.90
15705;DHT22;7952;48.396;12.806;2024-02-14T06:46:24;6.00;56.10
15705;DHT22;7952;48.396;12.806;2024-02-14T06:48:50;6.10;56.30
15705;DHT22;7952;48.396;12.806;2024-02-14T06:51:15;6.30;56.30
15705;DHT22;7952;48.396;12.806;2024-02-14T06:53:41;6.40;56.10
15705;DHT22;7952;48.396;12.806;2024-02-14T06:56:07;6.60;55.90
15705;DHT22;7952;48.396;12.806;2024-02-14T06:58:32;6.70;55.80
15705;DHT22;7952;48.396;12.806;2024-02-14T07:00:58;6.70;55.70
15705;DHT22;7952;48.396;12.806;2024-02-14T07:03:23;6.70;55.50
15705;DHT22;7952;48.396;12.806;2024-02-14T07:05:49;6.80;55.50
15705;DHT22;7952;48.396;12.806;2024-02-14T07:08:16;6.80;55.50
15705;DHT22;7952;48.396;12.806;2024-02-14T07:10:41;6.80;55.50
15705;DHT22;7952;48.396;12.806;2024-02-14T07:13:07;6.90;55.50
15705;DHT22;7952;48.396;12.806;2024-02-14T07:15:32;6.90;55.50
15705;DHT22;7952;48.396;12.806;2024-02-14T07:17:58;6.90;55.40
15705;DHT22;7952;48.396;12.806;2024-02-14T07:20:24;7.00;55.50
15705;DHT22;7952;48.396;12.806;2024-02-14T07:22:53;7.00;55.50
15705;DHT22;7952;48.396;12.806;2024-02-14T07:25:19;7.10;55.50
15705;DHT22;7952;48.396;12.806;2024-02-14T07:27:45;7.10;55.50
15705;DHT22;7952;48.396;12.806;2024-02-14T07:30:12;7.10;55.50
15705;DHT22;7952;48.396;12.806;2024-02-14T07:32:37;7.20;55.50
15705;DHT22;7952;48.396;12.806;2024-02-14T07:35:04;7.30;55.50
15705;DHT22;7952;48.396;12.806;2024-02-14T07:37:30;7.30;55.40
15705;DHT22;7952;48.396;12.806;2024-02-14T07:39:56;7.40;55.40
15705;DHT22;7952;48.396;12.806;2024-02-14T07:42:21;7.40;55.30
15705;DHT22;7952;48.396;12.806;2024-02-14T07:44:47;7.50;55.30
15705;DHT22;7952;48.396;12.806;2024-02-14T07:47:13;7.50;55.30
15705;DHT22;7952;48.396;12.806;2024-02-14T07:49:39;7.60;55.40
15705;DHT22;7952;48.396;12.806;2024-02-14T07:52:06;7.60;55.50
15705;DHT22;7952;48.396;12.806;2024-02-14T07:54:32;7.70;55.50
15705;DHT22;7952;48.396;12.806;2024-02-14T07:56:58;7.80;55.50
15705;DHT22;7952;48.396;12.806;2024-02-14T07:59:24;7.80;55.40
15705;DHT22;7952;48.396;12.806;2024-02-14T08:01:49;7.90;55.40
15705;DHT22;7952;48.396;12.806;2024-02-14T08:04:16;7.90;55.50
15705;DHT22;7952;48.396;12.806;2024-02-14T08:06:41;8.00;55.40
15705;DHT22;7952;48.396;12.806;2024-02-14T08:09:07;8.00;55.30
15705;DHT22;7952;48.396;12.806;2024-02-14T08:11:35;8.00;55.20
15705;DHT22;7952;48.396;12.806;2024-02-14T08:14:01;8.10;55.30
15705;DHT22;7952;48.396;12.806;2024-02-14T08:16:27;8.10;55.30
15705;DHT22;7952;48.396;12.806;2024-02-14T08:18:53;8.20;55.30
15705;DHT22;7952;48.396;12.806;2024-02-14T08:21:25;8.20;55.30
15705;DHT22;7952;48.396;12.806;2024-02-14T08:23:55;8.30;55.30
15705;DHT22;7952;48.396;12.806;2024-02-14T08:26:23;8.30;55.30
15705;DHT22;7952;48.396;12.806;2024-02-14T08:28:49;8.30;55.80
15705;DHT22;7952;48.396;12.806;2024-02-14T08:31:15;8.40;55.30
15705;DHT22;7952;48.396;12.806;2024-02-14T08:33:41;8.40;55.30
15705;DHT22;7952;48.396;12.806;2024-02-14T08:36:07;8.40;55.30
15705;DHT22;7952;48.396;12.806;2024-02-14T08:38:33;8.50;55.40
15705;DHT22;7952;48.396;12.806;2024-02-14T08:41:03;8.50;55.40
15705;DHT22;7952;48.396;12.806;2024-02-14T08:43:29;8.60;55.40
15705;DHT22;7952;48.396;12.806;2024-02-14T08:45:55;8.70;55.40
15705;DHT22;7952;48.396;12.806;2024-02-14T08:48:22;8.70;55.30
15705;DHT22;7952;48.396;12.806;2024-02-14T08:53:17;8.90;55.40
15705;DHT22;7952;48.396;12.806;2024-02-14T08:55:43;8.90;55.30
15705;DHT22;7952;48.396;12.806;2024-02-14T08:58:09;9.00;55.30
15705;DHT22;7952;48.396;12.806;2024-02-14T09:00:36;9.00;55.20
15705;DHT22;7952;48.396;12.806;2024-02-14T09:03:03;9.10;55.20
15705;DHT22;7952;48.396;12.806;2024-02-14T09:05:28;9.10;55.20
15705;DHT22;7952;48.396;12.806;2024-02-14T09:07:54;9.10;55.20
15705;DHT22;7952;48.396;12.806;2024-02-14T09:10:21;9.20;55.20
15705;DHT22;7952;48.396;12.806;2024-02-14T09:12:47;9.20;55.00
15705;DHT22;7952;48.396;12.806;2024-02-14T09:15:13;9.30;55.10
15705;DHT22;7952;48.396;12.806;2024-02-14T09:17:39;9.30;55.20
15705;DHT22;7952;48.396;12.806;2024-02-14T09:20:10;9.30;55.10
15705;DHT22;7952;48.396;12.806;2024-02-14T09:22:36;9.40;55.00
15705;DHT22;7952;48.396;12.806;2024-02-14T09:25:02;9.50;55.10
15705;DHT22;7952;48.396;12.806;2024-02-14T09:27:31;9.50;55.00
15705;DHT22;7952;48.396;12.806;2024-02-14T09:29:58;9.60;55.00
15705;DHT22;7952;48.396;12.806;2024-02-14T09:32:24;9.60;55.00
15705;DHT22;7952;48.396;12.806;2024-02-14T09:34:50;9.70;55.00
15705;DHT22;7952;48.396;12.806;2024-02-14T09:37:16;9.80;55.00
15705;DHT22;7952;48.396;12.806;2024-02-14T09:39:42;9.90;55.00
15705;DHT22;7952;48.396;12.806;2024-02-14T09:42:13;10.00;53.90
15705;DHT22;7952;48.396;12.806;2024-02-14T09:44:41;10.10;53.90
15705;DHT22;7952;48.396;12.806;2024-02-14T09:47:08;10.10;53.80
15705;DHT22;7952;48.396;12.806;2024-02-14T09:49:35;10.10;53.80
15705;DHT22;7952;48.396;12.806;2024-02-14T09:52:05;10.20;53.80
15705;DHT22;7952;48.396;12.806;2024-02-14T09:54:32;10.20;53.80
15705;DHT22;7952;48.396;12.806;2024-02-14T09:57:02;10.20;53.80
15705;DHT22;7952;48.396;12.806;2024-02-14T09:59:29;10.30;53.90
15705;DHT22;7952;48.396;12.806;2024-02-14T10:01:55;10.30;53.90
15705;DHT22;7952;48.396;12.806;2024-02-14T10:04:20;10.30;53.90
15705;DHT22;7952;48.396;12.806;2024-02-14T10:06:47;10.40;54.00
15705;DHT22;7952;48.396;12.806;2024-02-14T10:09:21;10.50;54.00
15705;DHT22;7952;48.396;12.806;2024-02-14T10:11:48;10.60;54.10
15705;DHT22;7952;48.396;12.806;2024-02-14T10:14:14;10.60;53.90
15705;DHT22;7952;48.396;12.806;2024-02-14T10:16:40;10.70;53.90
15705;DHT22;7952;48.396;12.806;2024-02-14T10:19:18;10.80;54.00
15705;DHT22;7952;48.396;12.806;2024-02-14T10:21:54;10.90;54.00
15705;DHT22;7952;48.396;12.806;2024-02-14T10:24:21;10.90;53.90
15705;DHT22;7952;48.396;12.806;2024-02-14T10:26:48;11.00;54.00
15705;DHT22;7952;48.396;12.806;2024-02-14T10:29:13;11.20;54.20
15705;DHT22;7952;48.396;12.806;2024-02-14T10:31:40;11.40;54.20
15705;DHT22;7952;48.396;12.806;2024-02-14T10:34:06;11.50;54.10
15705;DHT22;7952;48.396;12.806;2024-02-14T10:36:33;11.70;54.20
15705;DHT22;7952;48.396;12.806;2024-02-14T10:39:01;11.90;54.30
15705;DHT22;7952;48.396;12.806;2024-02-14T10:41:30;12.10;54.20
15705;DHT22;7952;48.396;12.806;2024-02-14T10:44:02;12.30;54.40
15705;DHT22;7952;48.396;12.806;2024-02-14T10:46:36;12.50;54.10
15705;DHT22;7952;48.396;12.806;2024-02-14T10:49:33;12.70;54.00
15705;DHT22;7952;48.396;12.806;2024-02-14T10:52:02;12.80;53.70
15705;DHT22;7952;48.396;12.806;2024-02-14T10:58:22;12.90;53.40
15705;DHT22;7952;48.396;12.806;2024-02-14T11:00:49;12.80;53.40
15705;DHT22;7952;48.396;12.806;2024-02-14T11:03:16;12.80;53.40
15705;DHT22;7952;48.396;12.806;2024-02-14T11:05:47;12.80;53.50
15705;DHT22;7952;48.396;12.806;2024-02-14T11:08:25;12.80;53.50
15705;DHT22;7952;48.396;12.806;2024-02-14T11:10:55;12.80;53.60
15705;DHT22;7952;48.396;12.806;2024-02-14T11:13:29;12.90;53.60
15705;DHT22;7952;48.396;12.806;2024-02-14T11:16:08;12.90;53.60
15705;DHT22;7952;48.396;12.806;2024-02-14T11:18:34;12.90;53.60
15705;DHT22;7952;48.396;12.806;2024-02-14T11:21:03;13.00;53.80
15705;DHT22;7952;48.396;12.806;2024-02-14T11:23:31;13.10;53.90
15705;DHT22;7952;48.396;12.806;2024-02-14T11:26:03;13.20;53.90
15705;DHT22;7952;48.396;12.806;2024-02-14T11:28:37;13.30;53.80
15705;DHT22;7952;48.396;12.806;2024-02-14T11:31:07;13.40;53.80
15705;DHT22;7952;48.396;12.806;2024-02-14T11:33:35;13.60;53.70
15705;DHT22;7952;48.396;12.806;2024-02-14T11:36:07;13.60;53.50
15705;DHT22;7952;48.396;12.806;2024-02-14T11:38:35;13.70;53.60
15705;DHT22;7952;48.396;12.806;2024-02-14T11:41:02;13.80;53.50
15705;DHT22;7952;48.396;12.806;2024-02-14T11:43:29;13.90;53.50
15705;DHT22;7952;48.396;12.806;2024-02-14T11:45:55;13.90;53.40
15705;DHT22;7952;48.396;12.806;2024-02-14T11:48:21;13.90;53.30
15705;DHT22;7952;48.396;12.806;2024-02-14T11:50:50;14.00;53.30
15705;DHT22;7952;48.396;12.806;2024-02-14T11:53:18;13.90;53.20
15705;DHT22;7952;48.396;12.806;2024-02-14T11:55:45;14.00;53.20
15705;DHT22;7952;48.396;12.806;2024-02-14T11:58:13;14.00;53.30
15705;DHT22;7952;48.396;12.806;2024-02-14T12:00:40;14.00;53.40
15705;DHT22;7952;48.396;12.806;2024-02-14T12:03:20;14.10;53.30
15705;DHT22;7952;48.396;12.806;2024-02-14T12:05:55;14.10;53.20
15705;DHT22;7952;48.396;12.806;2024-02-14T12:08:23;14.10;53.30
15705;DHT22;7952;48.396;12.806;2024-02-14T12:10:49;14.10;53.30
15705;DHT22;7952;48.396;12.806;2024-02-14T12:13:17;14.20;53.40
15705;DHT22;7952;48.396;12.806;2024-02-14T12:15:50;14.30;53.50
15705;DHT22;7952;48.396;12.806;2024-02-14T12:18:17;14.40;53.60
15705;DHT22;7952;48.396;12.806;2024-02-14T12:20:45;14.50;53.50
15705;DHT22;7952;48.396;12.806;2024-02-14T12:23:16;14.60;53.30
15705;DHT22;7952;48.396;12.806;2024-02-14T12:25:43;14.70;53.20
15705;DHT22;7952;48.396;12.806;2024-02-14T12:28:16;14.80;53.30
15705;DHT22;7952;48.396;12.806;2024-02-14T12:30:49;14.90;53.20
15705;DHT22;7952;48.396;12.806;2024-02-14T12:33:16;15.00;53.10
15705;DHT22;7952;48.396;12.806;2024-02-14T12:35:46;15.10;53.00
15705;DHT22;7952;48.396;12.806;2024-02-14T12:38:13;15.10;53.00
15705;DHT22;7952;48.396;12.806;2024-02-14T12:40:41;15.10;53.00
15705;DHT22;7952;48.396;12.806;2024-02-14T12:43:08;15.20;52.90
15705;DHT22;7952;48.396;12.806;2024-02-14T12:45:34;15.20;52.80
15705;DHT22;7952;48.396;12.806;2024-02-14T12:48:00;15.20;52.80
15705;DHT22;7952;48.396;12.806;2024-02-14T12:50:26;15.20;52.90
15705;DHT22;7952;48.396;12.806;2024-02-14T12:52:52;15.20;52.90
15705;DHT22;7952;48.396;12.806;2024-02-14T12:55:17;15.20;52.90
15705;DHT22;7952;48.396;12.806;2024-02-14T12:57:45;15.20;52.90
15705;DHT22;7952;48.396;12.806;2024-02-14T13:00:11;15.30;53.10
15705;DHT22;7952;48.396;12.806;2024-02-14T13:02:37;15.30;53.10
15705;DHT22;7952;48.396;12.806;2024-02-14T13:05:04;15.30;53.00
15705;DHT22;7952;48.396;12.806;2024-02-14T13:07:31;15.30;52.90
15705;DHT22;7952;48.396;12.806;2024-02-14T13:09:56;15.30;52.90
15705;DHT22;7952;48.396;12.806;2024-02-14T13:12:22;15.30;52.90
15705;DHT22;7952;48.396;12.806;2024-02-14T13:14:48;15.30;52.90
15705;DHT22;7952;48.396;12.806;2024-02-14T13:17:14;15.30;52.90
15705;DHT22;7952;48.396;12.806;2024-02-14T13:19:40;15.20;52.80
15705;DHT22;7952;48.396;12.806;2024-02-14T13:22:08;15.20;52.90
15705;DHT22;7952;48.396;12.806;2024-02-14T13:24:34;15.10;52.80
15705;DHT22;7952;48.396;12.806;2024-02-14T13:27:00;15.10;52.80
15705;DHT22;7952;48.396;12.806;2024-02-14T13:29:25;15.00;52.80
15705;DHT22;7952;48.396;12.806;2024-02-14T13:31:51;15.00;52.80
15705;DHT22;7952;48.396;12.806;2024-02-14T13:34:17;14.90;52.80
15705;DHT22;7952;48.396;12.806;2024-02-14T13:36:48;14.80;52.80
15705;DHT22;7952;48.396;12.806;2024-02-14T13:39:14;14.80;52.90
15705;DHT22;7952;48.396;12.806;2024-02-14T13:41:40;14.70;52.90
15705;DHT22;7952;48.396;12.806;2024-02-14T13:44:09;14.70;52.90
15705;DHT22;7952;48.396;12.806;2024-02-14T13:46:39;14.70;52.90
15705;DHT22;7952;48.396;12.806;2024-02-14T13:49:09;14.70;53.10
15705;DHT22;7952;48.396;12.806;2024-02-14T13:51:36;14.70;53.00
15705;DHT22;7952;48.396;12.806;2024-02-14T13:54:18;14.70;53.10
15705;DHT22;7952;48.396;12.806;2024-02-14T13:56:44;14.70;53.00
15705;DHT22;7952;48.396;12.806;2024-02-14T13:59:10;14.70;53.10
15705;DHT22;7952;48.396;12.806;2024-02-14T14:01:36;14.70;53.10
15705;DHT22;7952;48.396;12.806;2024-02-14T14:04:03;14.70;53.00
15705;DHT22;7952;48.396;12.806;2024-02-14T14:06:29;14.70;53.00
15705;DHT22;7952;48.396;12.806;2024-02-14T14:08:55;14.70;53.00
15705;DHT22;7952;48.396;12.806;2024-02-14T14:11:21;14.60;52.90
15705;DHT22;7952;48.396;12.806;2024-02-14T14:13:47;14.60;53.00
15705;DHT22;7952;48.396;12.806;2024-02-14T14:16:13;14.50;52.90
15705;DHT22;7952;48.396;12.806;2024-02-14T14:18:38;14.50;53.00
15705;DHT22;7952;48.396;12.806;2024-02-14T14:21:05;14.50;53.00
15705;DHT22;7952;48.396;12.806;2024-02-14T14:23:30;14.40;52.90
15705;DHT22;7952;48.396;12.806;2024-02-14T14:25:58;14.40;52.90
15705;DHT22;7952;48.396;12.806;2024-02-14T14:28:24;14.30;52.90
15705;DHT22;7952;48.396;12.806;2024-02-14T14:30:54;14.30;52.90
15705;DHT22;7952;48.396;12.806;2024-02-14T14:33:20;14.20;52.90
15705;DHT22;7952;48.396;12.806;2024-02-14T14:35:46;14.20;52.90
15705;DHT22;7952;48.396;12.806;2024-02-14T14:38:15;14.10;52.90
15705;DHT22;7952;48.396;12.806;2024-02-14T14:40:40;14.10;52.90
15705;DHT22;7952;48.396;12.806;2024-02-14T14:43:06;14.10;52.90
15705;DHT22;7952;48.396;12.806;2024-02-14T14:45:35;14.00;52.80
15705;DHT22;7952;48.396;12.806;2024-02-14T14:48:01;14.00;52.90
15705;DHT22;7952;48.396;12.806;2024-02-14T14:50:27;13.90;52.90
15705;DHT22;7952;48.396;12.806;2024-02-14T14:52:53;13.90;52.90
15705;DHT22;7952;48.396;12.806;2024-02-14T14:55:19;13.80;52.90
15705;DHT22;7952;48.396;12.806;2024-02-14T14:57:44;13.70;52.90
15705;DHT22;7952;48.396;12.806;2024-02-14T15:00:11;13.70;52.90
15705;DHT22;7952;48.396;12.806;2024-02-14T15:02:40;13.70;52.90
15705;DHT22;7952;48.396;12.806;2024-02-14T15:05:09;13.60;52.80
15705;DHT22;7952;48.396;12.806;2024-02-14T15:07:35;13.60;52.90
15705;DHT22;7952;48.396;12.806;2024-02-14T15:10:00;13.50;52.80
15705;DHT22;7952;48.396;12.806;2024-02-14T15:12:26;13.50;52.80
15705;DHT22;7952;48.396;12.806;2024-02-14T15:14:52;13.50;52.90
15705;DHT22;7952;48.396;12.806;2024-02-14T15:17:19;13.40;52.90
15705;DHT22;7952;48.396;12.806;2024-02-14T15:19:45;13.40;52.90
15705;DHT22;7952;48.396;12.806;2024-02-14T15:22:11;13.40;52.90
15705;DHT22;7952;48.396;12.806;2024-02-14T15:24:37;13.40;52.90
15705;DHT22;7952;48.396;12.806;2024-02-14T15:27:05;13.40;52.90
15705;DHT22;7952;48.396;12.806;2024-02-14T15:29:31;13.30;52.80
15705;DHT22;7952;48.396;12.806;2024-02-14T15:32:16;13.30;52.80
15705;DHT22;7952;48.396;12.806;2024-02-14T15:35:01;13.30;52.80
15705;DHT22;7952;48.396;12.806;2024-02-14T15:37:29;13.30;52.80
15705;DHT22;7952;48.396;12.806;2024-02-14T15:39:55;13.20;52.80
15705;DHT22;7952;48.396;12.806;2024-02-14T15:42:21;13.20;52.80
15705;DHT22;7952;48.396;12.806;2024-02-14T15:44:47;13.20;52.90